Time;durP1;ratioP1;P1;durP2;ratioP2;P2;SDS_P1;SDS_P2;PMS_P1;PMS_P2;Temp;Humidity;BMP_temperature;BMP_pressure;BME280_temperature;BME280_humidity;BME280_pressure;Samples;Min_cycle;Max_cycle;Signal;HPM_P1;HPM_P2
2022/06/14 00:01:08;;;;;;;12.10;5.32;;;12.20;99.90;;;;;;5073654;28;20049;-86
2022/06/14 00:03:58;;;;;;;13.02;4.10;;;12.10;99.90;;;;;;5073321;28;20041;-86
2022/06/14 00:06:46;;;;;;;9.35;4.55;;;12.10;99.90;;;;;;5072798;28;20045;-86
2022/06/14 00:09:36;;;;;;;11.60;4.63;;;12.10;99.90;;;;;;5075989;28;20048;-86
2022/06/14 00:12:28;;;;;;;14.52;5.35;;;12.10;99.90;;;;;;5070812;28;20132;-87
2022/06/14 00:15:16;;;;;;;12.07;5.30;;;12.10;99.90;;;;;;5077220;28;20076;-86
2022/06/14 00:18:11;;;;;;;17.70;5.22;;;12.10;99.90;;;;;;5066608;28;20052;-85
2022/06/14 00:21:08;;;;;;;11.60;4.65;;;12.20;99.90;;;;;;5069542;28;20174;-84
2022/06/14 00:24:01;;;;;;;21.05;5.63;;;12.30;99.90;;;;;;5077017;28;20123;-85
2022/06/14 00:26:51;;;;;;;10.00;4.80;;;12.40;99.90;;;;;;5058961;28;20052;-86
2022/06/14 00:29:40;;;;;;;11.30;5.47;;;12.30;99.90;;;;;;5067326;28;20039;-84
2022/06/14 00:32:33;;;;;;;9.43;5.20;;;12.30;99.90;;;;;;5071538;28;20036;-84
2022/06/14 00:35:23;;;;;;;10.90;5.65;;;12.30;99.90;;;;;;5066866;28;20049;-86
2022/06/14 00:38:13;;;;;;;9.98;4.95;;;12.20;99.90;;;;;;5067716;28;20159;-85
2022/06/14 00:41:07;;;;;;;16.20;4.90;;;12.10;99.90;;;;;;5064895;28;20346;-86
2022/06/14 00:44:02;;;;;;;12.38;4.93;;;12.00;99.90;;;;;;5058695;28;20533;-85
2022/06/14 00:47:06;;;;;;;12.43;4.97;;;12.00;99.90;;;;;;5077635;28;20181;-86
2022/06/14 00:50:04;;;;;;;13.10;5.93;;;11.90;99.90;;;;;;5075364;28;20124;-85
2022/06/14 00:53:17;;;;;;;14.60;5.63;;;11.80;99.90;;;;;;5070606;28;20122;-84
2022/06/14 00:56:06;;;;;;;;;;;11.70;99.90;;;;;;5058245;28;20072;-85
2022/06/14 00:59:12;;;;;;;11.45;5.10;;;11.70;99.90;;;;;;5072940;28;19960;-86
2022/06/14 01:02:19;;;;;;;14.38;5.90;;;11.70;99.90;;;;;;5070479;28;20051;-85
2022/06/14 01:06:05;;;;;;;9.55;5.30;;;11.60;99.90;;;;;;5070411;28;20124;-86
2022/06/14 01:08:53;;;;;;;11.63;5.78;;;11.60;99.90;;;;;;5068255;28;20044;-85
2022/06/14 01:11:54;;;;;;;9.32;5.13;;;11.50;99.90;;;;;;5072222;28;20491;-86
2022/06/14 01:15:29;;;;;;;9.75;5.90;;;11.40;99.90;;;;;;5067840;28;20125;-83
2022/06/14 01:18:18;;;;;;;13.50;5.93;;;11.30;99.90;;;;;;5070652;28;20198;-84
2022/06/14 01:21:11;;;;;;;13.18;6.20;;;11.20;99.90;;;;;;5050473;28;20044;-86
2022/06/14 01:23:59;;;;;;;18.02;6.03;;;11.10;99.90;;;;;;5067384;28;20113;-85
2022/06/14 01:26:57;;;;;;;12.68;6.25;;;11.10;99.90;;;;;;5082587;28;20099;-85
2022/06/14 01:30:00;;;;;;;12.23;6.38;;;11.00;99.90;;;;;;5055643;28;20048;-85
2022/06/14 01:33:03;;;;;;;13.75;6.05;;;11.00;99.90;;;;;;5071233;28;20131;-85
2022/06/14 01:35:57;;;;;;;13.65;6.10;;;10.90;99.90;;;;;;5070199;28;20045;-85
2022/06/14 01:38:49;;;;;;;14.73;6.30;;;11.00;99.90;;;;;;5069412;28;20617;-86
2022/06/14 01:41:42;;;;;;;12.73;6.68;;;10.90;99.90;;;;;;5069075;28;20283;-85
2022/06/14 01:45:03;;;;;;;13.32;6.10;;;10.90;99.90;;;;;;5068441;28;20074;-86
2022/06/14 01:48:13;;;;;;;17.05;6.72;;;10.90;99.90;;;;;;5069606;28;20106;-86
2022/06/14 01:55:08;;;;;;;12.95;6.05;;;10.90;99.90;;;;;;5068765;28;20049;-85
2022/06/14 01:58:08;;;;;;;13.80;6.25;;;10.90;99.90;;;;;;5058030;28;20121;-86
2022/06/14 02:01:28;;;;;;;12.55;7.10;;;10.90;99.90;;;;;;5066319;28;20452;-86
2022/06/14 02:04:39;;;;;;;11.00;6.15;;;10.80;99.90;;;;;;5073530;28;20051;-85
2022/06/14 02:07:47;;;;;;;15.00;7.00;;;10.70;99.90;;;;;;5067291;28;20052;-86
2022/06/14 02:10:56;;;;;;;12.38;7.40;;;10.60;99.90;;;;;;5069741;28;20045;-85
2022/06/14 02:13:53;;;;;;;17.52;7.88;;;10.50;99.90;;;;;;5052986;28;20097;-85
2022/06/14 02:17:28;;;;;;;15.23;7.80;;;10.50;99.90;;;;;;5071074;28;20059;-85
2022/06/14 02:20:26;;;;;;;19.05;6.65;;;10.40;99.90;;;;;;4986291;28;20054;-85
2022/06/14 02:23:14;;;;;;;12.52;7.38;;;10.40;99.90;;;;;;4997869;28;20046;-83
2022/06/14 02:26:07;;;;;;;10.93;6.47;;;10.40;99.90;;;;;;5069447;28;20331;-85
2022/06/14 02:29:06;;;;;;;13.98;6.45;;;10.40;99.90;;;;;;5064402;28;20068;-85
2022/06/14 02:31:58;;;;;;;19.70;7.38;;;10.30;99.90;;;;;;5056447;28;20117;-85
2022/06/14 02:34:52;;;;;;;13.77;7.88;;;10.30;99.90;;;;;;5070938;28;20079;-85
2022/06/14 02:38:22;;;;;;;14.63;7.50;;;10.30;99.90;;;;;;5067224;28;20056;-85
2022/06/14 02:41:22;;;;;;;15.80;7.47;;;10.40;99.90;;;;;;4993669;28;20057;-87
2022/06/14 02:44:23;;;;;;;15.25;7.65;;;10.40;99.90;;;;;;5005977;28;20097;-87
2022/06/14 02:47:38;;;;;;;16.30;7.97;;;10.40;99.90;;;;;;5064159;28;20434;-85
2022/06/14 02:51:01;;;;;;;17.65;7.82;;;10.30;99.90;;;;;;5074779;28;20068;-85
2022/06/14 02:54:02;;;;;;;11.13;7.80;;;10.20;99.90;;;;;;5077880;28;20064;-85
2022/06/14 02:56:58;;;;;;;15.38;7.55;;;10.10;99.90;;;;;;5085663;28;20171;-86
2022/06/14 02:59:58;;;;;;;20.90;8.30;;;10.00;99.90;;;;;;5066534;28;20326;-87
2022/06/14 03:02:59;;;;;;;22.88;9.18;;;9.90;99.90;;;;;;5069800;28;20060;-85
2022/06/14 03:06:11;;;;;;;20.43;7.87;;;9.90;99.90;;;;;;5075550;28;20036;-84
2022/06/14 03:09:16;;;;;;;19.58;8.40;;;10.00;99.90;;;;;;5071524;28;20310;-84
2022/06/14 03:12:06;;;;;;;18.15;7.50;;;9.90;99.90;;;;;;5075427;28;20049;-84
2022/06/14 03:15:03;;;;;;;17.35;8.70;;;9.90;99.90;;;;;;5075359;28;20044;-86
2022/06/14 03:18:12;;;;;;;18.27;8.13;;;9.80;99.90;;;;;;5071431;28;20056;-84
2022/06/14 03:21:35;;;;;;;18.27;9.48;;;9.80;99.90;;;;;;5064520;28;20405;-84
2022/06/14 03:24:46;;;;;;;15.73;8.63;;;9.80;99.90;;;;;;5001775;28;20437;-84
2022/06/14 03:27:39;;;;;;;14.43;8.45;;;9.80;99.90;;;;;;5073782;28;20047;-84
2022/06/14 03:30:56;;;;;;;14.05;8.48;;;9.80;99.90;;;;;;5064503;28;20616;-84
2022/06/14 03:34:02;;;;;;;18.08;7.47;;;9.90;99.90;;;;;;5073412;28;20079;-83
2022/06/14 03:36:59;;;;;;;14.68;8.15;;;10.00;99.90;;;;;;5073421;28;20403;-84
2022/06/14 03:40:15;;;;;;;16.77;7.90;;;10.00;99.90;;;;;;5074457;28;20049;-86
2022/06/14 03:43:03;;;;;;;15.50;7.93;;;10.10;99.90;;;;;;5069824;28;20138;-86
2022/06/14 03:46:06;;;;;;;17.00;7.88;;;10.10;99.90;;;;;;5071351;28;20225;-87
2022/06/14 03:49:07;;;;;;;17.52;9.10;;;10.00;99.90;;;;;;5058736;28;20037;-86
2022/06/14 03:52:18;;;;;;;19.77;9.15;;;10.00;99.90;;;;;;5068831;28;20098;-86
2022/06/14 03:55:16;;;;;;;21.38;9.77;;;9.90;99.90;;;;;;5071474;28;20135;-86
2022/06/14 03:58:22;;;;;;;20.02;8.70;;;9.80;99.90;;;;;;5058228;28;20052;-85
2022/06/14 04:05:39;;;;;;;14.88;8.60;;;9.80;99.90;;;;;;5074373;28;20362;-85
2022/06/14 04:08:36;;;;;;;16.65;8.35;;;9.80;99.90;;;;;;5057464;28;20670;-84
2022/06/14 04:11:37;;;;;;;13.82;8.23;;;9.90;99.90;;;;;;5068666;28;20037;-85
2022/06/14 04:15:00;;;;;;;15.60;8.32;;;9.90;99.90;;;;;;5070563;28;20036;-84
2022/06/14 04:18:35;;;;;;;19.02;8.50;;;10.00;99.90;;;;;;5070582;28;20055;-85
2022/06/14 04:21:25;;;;;;;16.75;8.82;;;10.20;99.90;;;;;;5049142;28;20060;-86
2022/06/14 04:24:18;;;;;;;18.98;9.20;;;10.30;99.90;;;;;;5074518;28;20098;-83
2022/06/14 04:27:44;;;;;;;14.02;7.78;;;10.40;99.90;;;;;;5072334;28;20052;-84
2022/06/14 04:31:06;;;;;;;13.52;7.68;;;10.40;99.90;;;;;;5079876;28;20120;-81
2022/06/14 04:34:07;;;;;;;13.57;8.23;;;10.40;99.90;;;;;;5081328;28;20131;-83
2022/06/14 04:37:13;;;;;;;18.83;8.48;;;10.50;99.90;;;;;;5071935;28;20048;-83
2022/06/14 04:40:09;;;;;;;15.13;8.27;;;10.50;99.90;;;;;;5092865;28;20052;-83
2022/06/14 04:43:11;;;;;;;15.75;8.02;;;10.60;99.90;;;;;;5085591;28;20487;-85
2022/06/14 04:46:15;;;;;;;15.15;7.60;;;10.70;99.90;;;;;;5087960;28;20064;-83
2022/06/14 04:49:22;;;;;;;18.58;7.60;;;10.90;99.90;;;;;;5057497;28;20029;-86
2022/06/14 04:52:45;;;;;;;14.52;7.00;;;11.00;99.90;;;;;;5086352;28;20044;-86
2022/06/14 04:55:47;;;;;;;17.07;8.00;;;11.20;99.90;;;;;;5086791;28;20123;-85
2022/06/14 05:12:04;;;;;;;17.70;8.20;;;11.70;99.90;;;;;;4931738;28;20058;-89
2022/06/14 05:14:58;;;;;;;13.88;7.47;;;11.90;99.90;;;;;;5076125;28;20045;-87
2022/06/14 05:17:58;;;;;;;18.55;8.43;;;11.90;99.90;;;;;;5071408;28;20499;-85
2022/06/14 05:20:59;;;;;;;13.25;6.55;;;12.00;99.90;;;;;;5073143;28;20133;-88
2022/06/14 05:23:56;;;;;;;11.43;6.97;;;12.10;99.90;;;;;;5060172;28;20401;-83
2022/06/14 05:27:04;;;;;;;13.30;7.05;;;12.20;99.90;;;;;;5067595;28;20486;-85
2022/06/14 05:30:23;;;;;;;12.48;6.10;;;12.40;99.90;;;;;;5070668;28;20049;-85
2022/06/14 05:33:30;;;;;;;13.25;7.07;;;12.50;99.90;;;;;;5072117;28;20040;-84
2022/06/14 05:36:27;;;;;;;14.80;7.30;;;12.60;99.90;;;;;;5073579;28;20037;-85
2022/06/14 05:39:38;;;;;;;15.25;6.50;;;12.70;99.90;;;;;;5063290;28;20051;-84
2022/06/14 05:42:33;;;;;;;12.55;6.32;;;12.80;99.90;;;;;;5055592;28;20048;-83
2022/06/14 05:45:27;;;;;;;14.43;6.85;;;13.00;99.90;;;;;;5070236;28;20114;-84
2022/06/14 05:48:26;;;;;;;12.02;6.72;;;13.00;99.90;;;;;;5058499;28;20055;-85
2022/06/14 05:51:16;;;;;;;16.50;7.25;;;13.10;99.90;;;;;;5064741;28;20040;-85
2022/06/14 05:54:16;;;;;;;13.90;7.32;;;13.20;99.90;;;;;;5058782;28;20406;-87
2022/06/14 05:57:06;;;;;;;12.05;6.45;;;13.40;99.90;;;;;;5057474;28;20036;-85
2022/06/14 06:00:06;;;;;;;11.95;6.57;;;13.50;99.90;;;;;;5071595;28;20051;-85
2022/06/14 06:03:20;;;;;;;11.05;5.90;;;13.60;99.90;;;;;;5059591;28;20059;-85
2022/06/14 06:06:21;;;;;;;11.73;5.95;;;13.70;99.90;;;;;;5070279;28;20044;-87
2022/06/14 06:09:21;;;;;;;15.52;6.53;;;13.90;99.90;;;;;;5070899;28;20120;-87
2022/06/14 06:12:20;;;;;;;12.85;6.03;;;14.00;99.90;;;;;;5071497;28;20044;-85
2022/06/14 06:15:18;;;;;;;16.15;5.97;;;14.10;99.90;;;;;;5073960;28;20121;-87
2022/06/14 06:18:17;;;;;;;14.52;6.55;;;14.30;99.90;;;;;;5070499;28;20051;-86
2022/06/14 06:21:28;;;;;;;18.52;6.53;;;14.50;99.90;;;;;;5066982;28;20333;-85
2022/06/14 06:24:39;;;;;;;13.40;5.82;;;14.70;99.90;;;;;;5057040;28;20064;-90
2022/06/14 06:27:39;;;;;;;17.15;5.35;;;15.00;99.90;;;;;;5071549;28;20044;-90
2022/06/14 06:30:32;;;;;;;12.75;6.22;;;15.20;99.90;;;;;;5068764;28;20056;-90
2022/06/14 06:33:22;;;;;;;9.57;5.07;;;15.30;99.90;;;;;;5079340;28;20043;-90
2022/06/14 06:36:32;;;;;;;16.58;6.13;;;15.50;99.90;;;;;;5078310;28;20055;-90
2022/06/14 06:39:45;;;;;;;18.45;6.03;;;15.70;99.90;;;;;;5070683;28;20349;-90
2022/06/14 06:42:52;;;;;;;11.00;5.13;;;16.00;99.90;;;;;;5062063;28;20045;-90
2022/06/14 06:45:49;;;;;;;14.75;5.65;;;16.30;99.90;;;;;;5073624;28;20068;-88
2022/06/14 06:48:47;;;;;;;12.30;5.50;;;16.80;99.90;;;;;;5061065;28;20074;-90
2022/06/14 06:51:42;;;;;;;11.43;5.22;;;17.20;99.90;;;;;;5073499;28;20072;-92
2022/06/14 06:54:47;;;;;;;12.52;5.55;;;17.50;99.90;;;;;;5070942;28;20033;-91
2022/06/14 06:57:38;;;;;;;11.35;4.95;;;17.90;99.90;;;;;;5078505;28;20476;-89
2022/06/14 07:00:31;;;;;;;8.23;4.18;;;18.20;99.90;;;;;;5056855;28;20041;-89
2022/06/14 07:03:49;;;;;;;14.57;5.00;;;18.60;99.90;;;;;;5069787;28;20041;-91
2022/06/14 07:06:49;;;;;;;12.05;4.82;;;18.70;99.90;;;;;;5075229;28;20041;-91
2022/06/14 07:10:12;;;;;;;11.02;4.35;;;19.20;99.90;;;;;;5063518;28;20083;-92
2022/06/14 07:13:34;;;;;;;8.52;4.30;;;19.70;99.90;;;;;;5059232;28;20044;-91
2022/06/14 07:16:22;;;;;;;8.90;4.30;;;20.20;99.10;;;;;;5065367;28;20442;-91
2022/06/14 07:19:44;;;;;;;11.93;4.40;;;20.70;98.00;;;;;;5074439;28;20164;-91
2022/06/14 07:22:55;;;;;;;10.90;4.25;;;20.80;96.20;;;;;;5064445;28;20071;-91
2022/06/14 07:26:04;;;;;;;8.07;4.57;;;21.00;92.50;;;;;;5059662;28;20052;-92
2022/06/14 07:29:46;;;;;;;13.32;5.00;;;21.40;93.60;;;;;;5078298;28;20445;-90
2022/06/14 07:33:01;;;;;;;7.67;3.90;;;21.60;91.30;;;;;;5066638;28;20057;-91
2022/06/14 07:35:54;;;;;;;11.55;3.92;;;21.80;87.40;;;;;;5072434;28;21227;-93
2022/06/14 07:39:16;;;;;;;9.25;4.30;;;21.80;86.70;;;;;;5064102;28;20060;-91
2022/06/14 07:42:20;;;;;;;9.85;4.38;;;22.30;87.40;;;;;;5073642;28;20051;-92
2022/06/14 07:45:16;;;;;;;11.15;4.20;;;22.70;83.40;;;;;;5063355;28;20055;-92
2022/06/14 07:48:21;;;;;;;8.05;3.88;;;23.10;80.40;;;;;;5065976;28;20052;-90
2022/06/14 07:51:25;;;;;;;11.95;3.90;;;23.40;75.90;;;;;;5077310;28;20048;-90
2022/06/14 07:54:22;;;;;;;8.00;4.10;;;23.00;76.60;;;;;;5063285;28;20056;-91
2022/06/14 07:57:14;;;;;;;10.25;3.80;;;23.20;74.50;;;;;;5071777;28;20457;-91
2022/06/14 08:03:37;;;;;;;9.40;4.10;;;24.10;72.00;;;;;;5079964;28;20040;-92
2022/06/14 08:06:35;;;;;;;10.23;3.90;;;23.60;67.80;;;;;;5061757;28;20377;-89
2022/06/14 08:09:32;;;;;;;10.38;3.80;;;23.70;71.90;;;;;;5073289;28;20062;-90
2022/06/14 08:12:25;;;;;;;8.27;3.80;;;24.10;71.80;;;;;;5076013;28;20059;-88
2022/06/14 08:15:25;;;;;;;11.13;3.72;;;24.90;70.10;;;;;;5066077;28;20078;-89
2022/06/14 08:18:16;;;;;;;10.32;2.90;;;25.00;66.80;;;;;;5061038;28;20040;-90
2022/06/14 08:21:22;;;;;;;9.95;3.50;;;24.80;66.80;;;;;;5057695;28;20477;-92
2022/06/14 08:24:16;;;;;;;6.07;3.42;;;25.20;66.10;;;;;;5067246;28;20187;-91
2022/06/14 08:27:17;;;;;;;9.63;3.95;;;25.70;63.00;;;;;;5073524;28;20064;-92
2022/06/14 08:30:17;;;;;;;9.45;3.17;;;26.20;61.70;;;;;;5077055;28;20094;-90
2022/06/14 08:33:34;;;;;;;7.93;3.47;;;26.20;59.00;;;;;;5062106;28;20040;-90
2022/06/14 08:36:51;;;;;;;10.55;3.38;;;26.30;60.50;;;;;;5075765;28;20119;-93
2022/06/14 08:39:50;;;;;;;10.05;3.30;;;26.50;59.10;;;;;;5061253;28;20044;-90
2022/06/14 08:42:49;;;;;;;8.85;3.42;;;26.40;54.80;;;;;;5074391;28;20044;-90
2022/06/14 08:45:54;;;;;;;9.75;3.45;;;25.90;56.60;;;;;;5070250;28;20040;-91
2022/06/14 08:48:52;;;;;;;7.50;3.35;;;26.50;58.80;;;;;;5064659;28;20060;-91
2022/06/14 08:51:53;;;;;;;6.00;3.35;;;26.70;52.10;;;;;;5081181;28;20098;-93
2022/06/14 08:55:06;;;;;;;9.80;2.60;;;26.70;54.80;;;;;;5072739;28;20123;-92
2022/06/14 08:58:28;;;;;;;7.97;3.00;;;26.90;54.70;;;;;;5075099;28;20052;-89
2022/06/14 09:01:39;;;;;;;7.25;2.85;;;27.00;54.30;;;;;;5052826;28;20049;-85
2022/06/14 09:04:50;;;;;;;10.23;2.67;;;27.10;52.90;;;;;;5099386;27;20086;-89
2022/06/14 09:07:58;;;;;;;7.55;3.50;;;27.50;51.40;;;;;;5096190;28;20029;-92
2022/06/14 09:11:05;;;;;;;6.32;2.70;;;27.20;47.80;;;;;;5078920;28;20049;-94
2022/06/14 09:14:15;;;;;;;7.60;2.75;;;26.80;52.50;;;;;;5065935;28;20037;-91
2022/06/14 09:17:43;;;;;;;8.68;3.17;;;27.30;47.00;;;;;;5056127;28;20369;-90
2022/06/14 09:21:22;;;;;;;6.25;2.60;;;26.80;51.40;;;;;;5061567;28;20129;-89
2022/06/14 09:24:18;;;;;;;4.15;2.58;;;27.90;52.50;;;;;;5016622;28;20060;-90
2022/06/14 09:27:09;;;;;;;16.38;2.95;;;28.50;49.70;;;;;;5026466;28;20053;-88
2022/06/14 09:30:31;;;;;;;9.93;2.60;;;28.70;48.30;;;;;;5029382;28;20366;-91
2022/06/14 09:33:55;;;;;;;6.10;2.97;;;28.20;45.70;;;;;;5015265;28;20056;-89
2022/06/14 09:37:13;;;;;;;9.45;2.90;;;27.90;47.50;;;;;;5023801;28;20049;-89
2022/06/14 09:40:19;;;;;;;5.32;2.85;;;28.40;45.70;;;;;;5029710;28;20370;-91
2022/06/14 09:43:16;;;;;;;12.63;2.80;;;28.70;48.80;;;;;;5031189;28;20148;-91
2022/06/14 09:46:19;;;;;;;5.65;2.75;;;29.40;44.50;;;;;;5030515;28;20046;-90
2022/06/14 09:49:10;;;;;;;4.63;2.40;;;29.10;47.30;;;;;;5025045;28;20099;-84
2022/06/14 09:52:16;;;;;;;4.18;2.40;;;29.00;46.30;;;;;;5031677;28;20115;-89
2022/06/14 09:55:33;;;;;;;8.63;2.55;;;28.60;46.20;;;;;;5044005;28;20476;-92
2022/06/14 09:58:31;;;;;;;5.22;2.50;;;29.20;42.00;;;;;;5059768;28;20458;-88
2022/06/14 10:01:29;;;;;;;6.72;2.35;;;29.80;40.50;;;;;;5073197;28;20068;-88
2022/06/14 10:04:22;;;;;;;7.05;2.72;;;30.30;44.80;;;;;;5055931;28;20044;-89
2022/06/14 10:07:37;;;;;;;8.40;2.80;;;30.10;43.40;;;;;;5059246;28;20045;-89
2022/06/14 10:10:29;;;;;;;5.25;2.40;;;30.10;43.40;;;;;;5060107;28;20266;-91
2022/06/14 10:13:44;;;;;;;3.58;1.92;;;30.20;43.10;;;;;;5056639;28;20040;-93
2022/06/14 10:16:38;;;;;;;5.30;2.10;;;30.10;40.70;;;;;;5075767;28;20193;-89
2022/06/14 10:19:56;;;;;;;6.93;2.30;;;29.80;41.40;;;;;;5059357;28;20037;-90
2022/06/14 10:23:14;;;;;;;4.95;2.20;;;29.20;41.40;;;;;;5060734;28;20059;-88
2022/06/14 10:30:04;;;;;;;4.78;2.65;;;30.20;42.60;;;;;;5071307;28;20457;-91
2022/06/14 10:33:09;;;;;;;7.47;2.55;;;30.40;38.10;;;;;;5065407;28;20103;-86
2022/06/14 10:36:25;;;;;;;3.67;2.25;;;30.60;40.40;;;;;;5050845;28;20127;-90
2022/06/14 10:39:37;;;;;;;5.63;2.10;;;30.10;41.50;;;;;;5052851;28;20050;-88
2022/06/14 10:42:56;;;;;;;5.50;2.38;;;30.40;39.70;;;;;;5057424;28;20085;-91
2022/06/14 10:45:57;;;;;;;4.13;1.90;;;31.00;41.20;;;;;;5053588;28;20045;-91
2022/06/14 10:48:47;;;;;;;7.22;2.40;;;31.70;42.20;;;;;;5063782;28;20041;-92
2022/06/14 10:52:06;;;;;;;9.55;2.10;;;31.60;35.60;;;;;;5060870;28;20480;-92
2022/06/14 10:55:23;;;;;;;5.35;2.03;;;31.60;34.80;;;;;;5074283;28;20123;-90
2022/06/14 10:58:50;;;;;;;6.20;2.25;;;31.40;37.30;;;;;;5053573;28;20448;-93
2022/06/14 11:01:49;;;;;;;3.92;2.00;;;31.30;37.00;;;;;;5072373;28;20044;-94
2022/06/14 11:05:01;;;;;;;3.95;1.85;;;31.50;36.20;;;;;;5076739;28;20639;-92
2022/06/14 11:08:18;;;;;;;4.90;1.83;;;31.50;36.70;;;;;;5064342;28;20048;-92
2022/06/14 11:11:08;;;;;;;3.72;1.65;;;31.70;37.20;;;;;;5074223;28;20041;-91
2022/06/14 11:14:35;;;;;;;5.53;2.20;;;31.50;36.20;;;;;;5085275;28;20052;-90
2022/06/14 11:18:09;;;;;;;6.93;2.50;;;31.00;36.30;;;;;;5051906;28;20110;-89
2022/06/14 11:21:27;;;;;;;2.72;1.73;;;31.60;39.60;;;;;;5089535;27;20517;-87
2022/06/14 11:24:21;;;;;;;6.15;2.20;;;32.90;37.50;;;;;;5090158;28;20079;-90
2022/06/14 11:27:53;;;;;;;3.53;1.52;;;32.80;33.60;;;;;;5090179;28;20130;-89
2022/06/14 11:30:50;;;;;;;6.97;2.43;;;32.50;34.90;;;;;;5056241;28;20088;-90
2022/06/14 11:34:12;;;;;;;4.35;1.60;;;32.80;36.50;;;;;;5088020;28;20115;-90
2022/06/14 11:37:06;;;;;;;;;;;32.90;32.20;;;;;;5084759;28;20051;-95
2022/06/14 11:40:20;;;;;;;3.90;1.80;;;32.50;36.40;;;;;;5087693;28;19977;-93
2022/06/14 11:43:32;;;;;;;3.00;1.70;;;33.20;32.00;;;;;;5089667;28;20048;-92
2022/06/14 11:46:52;;;;;;;4.78;1.67;;;33.10;35.80;;;;;;5077499;28;20045;-90
2022/06/14 11:49:51;;;;;;;4.38;1.52;;;32.50;34.60;;;;;;5060110;28;20183;-92
2022/06/14 11:52:52;;;;;;;4.90;1.65;;;31.90;31.40;;;;;;5075993;28;20048;-89
2022/06/14 11:55:54;;;;;;;4.55;2.10;;;31.90;32.70;;;;;;5066024;28;20036;-89
2022/06/14 11:59:11;;;;;;;3.65;1.80;;;32.50;34.70;;;;;;5073978;28;20087;-89
2022/06/14 12:02:27;;;;;;;4.20;1.90;;;33.10;32.20;;;;;;5073658;28;20049;-93
2022/06/14 12:05:30;;;;;;;6.35;1.70;;;32.90;29.30;;;;;;5057113;28;20322;-91
2022/06/14 12:08:38;;;;;;;2.50;1.77;;;32.90;32.80;;;;;;5072757;28;20108;-91
2022/06/14 12:11:50;;;;;;;3.40;1.70;;;32.30;30.30;;;;;;5068056;28;20083;-90
2022/06/14 12:14:41;;;;;;;3.60;1.50;;;33.00;32.80;;;;;;5074031;28;20099;-92
2022/06/14 12:18:01;;;;;;;4.05;1.40;;;33.90;32.10;;;;;;5061823;28;20079;-90
2022/06/14 12:21:19;;;;;;;3.42;1.65;;;33.50;30.40;;;;;;5072857;28;20059;-89
2022/06/14 12:26:34;;;;;;;5.75;1.67;;;33.00;31.60;;;;;;5068684;28;20051;-92
2022/06/14 12:27:43;;;;;;;5.13;1.85;;;33.10;32.50;;;;;;5069463;28;20052;-91
2022/06/14 12:30:37;;;;;;;4.60;1.90;;;31.70;32.80;;;;;;5081306;28;20044;-90
2022/06/14 12:33:39;;;;;;;6.65;2.28;;;31.30;31.50;;;;;;5077006;28;20396;-91
2022/06/14 12:36:53;;;;;;;3.50;1.85;;;31.00;33.60;;;;;;5057568;28;20384;-90
2022/06/14 12:40:00;;;;;;;2.90;1.45;;;32.10;34.60;;;;;;5081043;28;20041;-92
2022/06/14 12:43:16;;;;;;;5.82;1.50;;;33.40;32.20;;;;;;5079981;28;20045;-90
2022/06/14 12:46:13;;;;;;;2.45;1.58;;;33.00;30.30;;;;;;5057343;28;20048;-90
2022/06/14 12:49:22;;;;;;;5.68;2.10;;;32.10;32.70;;;;;;5063530;28;20040;-89
2022/06/14 12:52:31;;;;;;;4.00;1.73;;;32.80;30.30;;;;;;5063388;28;20116;-88
2022/06/14 12:55:41;;;;;;;3.78;1.50;;;33.10;31.40;;;;;;5047906;28;20048;-88
2022/06/14 12:59:03;;;;;;;5.50;1.65;;;33.20;32.50;;;;;;5066349;28;20056;-91
2022/06/14 13:02:18;;;;;;;4.60;1.90;;;33.60;29.40;;;;;;5060474;28;20059;-90
2022/06/14 13:05:19;;;;;;;4.43;1.73;;;33.10;32.50;;;;;;5046073;28;20062;-89
2022/06/14 13:08:32;;;;;;;3.63;1.58;;;32.60;32.90;;;;;;5055890;28;20049;-94
2022/06/14 13:11:27;;;;;;;5.05;1.77;;;32.50;35.30;;;;;;5074065;28;20043;-92
2022/06/14 13:14:26;;;;;;;4.95;1.70;;;31.90;31.70;;;;;;5065336;28;20040;-89
2022/06/14 13:17:57;;;;;;;;;;;;;;;;;;;;;
2022/06/14 13:21:13;;;;;;;5.38;1.75;;;32.50;33.30;;;;;;5073251;28;20362;-92
2022/06/14 13:24:22;;;;;;;7.78;1.92;;;32.60;33.40;;;;;;5067660;28;20037;-91
2022/06/14 13:27:15;;;;;;;10.10;1.85;;;32.60;31.90;;;;;;5073214;28;20062;-92
2022/06/14 13:30:26;;;;;;;4.15;2.13;;;32.20;33.50;;;;;;5071887;28;20448;-90
2022/06/14 13:33:54;;;;;;;4.82;2.00;;;32.70;35.50;;;;;;5083771;28;20056;-90
2022/06/14 13:36:54;;;;;;;4.45;2.05;;;33.70;31.40;;;;;;5008376;28;20054;-90
2022/06/14 13:40:09;;;;;;;4.95;1.95;;;34.40;29.60;;;;;;5081710;28;20102;-87
2022/06/14 13:43:04;;;;;;;4.18;2.10;;;33.90;28.80;;;;;;5088050;28;20059;-90
2022/06/14 13:45:58;;;;;;;5.38;1.73;;;32.80;33.10;;;;;;5074888;28;20096;-91
2022/06/14 13:49:32;;;;;;;2.72;1.63;;;33.40;29.30;;;;;;5085107;28;20055;-87
2022/06/14 13:52:47;;;;;;;6.25;2.10;;;31.90;31.70;;;;;;5018628;28;20970;-89
2022/06/14 13:56:11;;;;;;;3.70;2.10;;;31.20;33.80;;;;;;5079295;28;20040;-90
2022/06/14 13:59:02;;;;;;;3.35;1.73;;;31.90;31.80;;;;;;5071406;28;20041;-87
2022/06/14 14:02:20;;;;;;;5.28;1.95;;;31.00;35.50;;;;;;5078934;28;20037;-92
2022/06/14 14:05:22;;;;;;;7.65;2.35;;;30.80;37.20;;;;;;5079388;28;20099;-89
2022/06/14 14:08:18;;;;;;;5.90;2.08;;;30.70;37.40;;;;;;5083271;28;20052;-91
2022/06/14 14:11:11;;;;;;;4.68;2.22;;;31.00;35.00;;;;;;5062938;28;20088;-92
2022/06/14 14:14:27;;;;;;;7.35;2.28;;;31.20;37.00;;;;;;5079389;28;20437;-92
2022/06/14 14:17:25;;;;;;;4.97;2.22;;;31.10;37.70;;;;;;5063331;28;20047;-91
2022/06/14 14:20:49;;;;;;;4.55;2.30;;;30.70;34.10;;;;;;5049514;28;20048;-89
2022/06/14 14:23:55;;;;;;;;;;;30.00;37.70;;;;;;5072919;28;20362;-89
2022/06/14 14:26:59;;;;;;;4.22;1.98;;;29.30;38.30;;;;;;5077929;28;19958;-90
2022/06/14 14:29:51;;;;;;;5.53;2.20;;;29.10;39.80;;;;;;5085000;28;20047;-90
2022/06/14 14:32:51;;;;;;;4.38;2.28;;;29.50;37.40;;;;;;5070590;28;20112;-91
2022/06/14 14:35:50;;;;;;;5.57;2.25;;;29.40;40.60;;;;;;5079965;28;20128;-88
2022/06/14 14:39:02;;;;;;;4.63;2.38;;;29.20;39.30;;;;;;5083991;28;20044;-88
2022/06/14 14:41:59;;;;;;;7.32;2.05;;;29.10;39.90;;;;;;5080494;28;20401;-88
2022/06/14 14:44:51;;;;;;;6.80;2.38;;;29.10;40.50;;;;;;5075952;28;20139;-86
2022/06/14 14:47:48;;;;;;;6.30;2.53;;;28.90;40.00;;;;;;5068873;28;20072;-90
2022/06/14 14:50:38;;;;;;;6.85;2.60;;;28.70;39.90;;;;;;5076895;28;20441;-86
2022/06/14 14:53:33;;;;;;;7.30;2.30;;;28.70;42.70;;;;;;5063477;28;20137;-89
2022/06/14 14:56:37;;;;;;;4.90;2.42;;;28.60;41.40;;;;;;5062679;28;20045;-87
2022/06/14 14:59:51;;;;;;;5.85;2.25;;;28.60;42.40;;;;;;5078271;28;20185;-88
2022/06/14 15:06:07;;;;;;;4.72;2.30;;;28.00;43.50;;;;;;5071627;28;20044;-87
2022/06/14 15:09:07;;;;;;;5.65;2.47;;;27.70;40.80;;;;;;5057739;28;20045;-86
2022/06/14 15:12:00;;;;;;;5.20;2.30;;;27.80;41.80;;;;;;5056432;28;20056;-90
2022/06/14 15:15:26;;;;;;;6.05;2.30;;;27.80;44.20;;;;;;5076583;28;20329;-87
2022/06/14 15:21:47;;;;;;;6.47;2.60;;;27.50;42.60;;;;;;5066731;28;20037;-89
2022/06/14 15:24:51;;;;;;;5.03;2.28;;;27.40;43.20;;;;;;5075904;28;20045;-89
2022/06/14 15:27:53;;;;;;;6.78;2.30;;;26.90;44.10;;;;;;5072896;28;20090;-90
2022/06/14 15:30:48;;;;;;;5.72;1.95;;;26.80;43.80;;;;;;5060226;28;20110;-89
2022/06/14 15:33:43;;;;;;;7.65;2.33;;;26.60;43.40;;;;;;5070313;28;20124;-88
2022/06/14 15:36:36;;;;;;;5.13;2.30;;;26.80;45.30;;;;;;5086019;28;20048;-89
2022/06/14 15:39:32;;;;;;;7.63;2.70;;;26.80;45.00;;;;;;5084349;28;20036;-89
2022/06/14 15:42:55;;;;;;;8.43;2.70;;;26.70;45.90;;;;;;5073395;28;20025;-89
2022/06/14 15:45:53;;;;;;;5.85;2.40;;;26.40;44.80;;;;;;5075100;28;20043;-88
2022/06/14 15:48:57;;;;;;;9.15;3.25;;;26.50;45.30;;;;;;5075452;28;20028;-82
2022/06/14 15:51:45;;;;;;;9.13;2.63;;;26.20;46.30;;;;;;5075992;28;20182;-90
2022/06/14 15:54:40;;;;;;;10.40;2.25;;;25.90;46.80;;;;;;5067088;28;20037;-90
2022/06/14 15:57:39;;;;;;;7.60;2.72;;;25.70;46.00;;;;;;5076340;28;20075;-90
2022/06/14 16:01:16;;;;;;;;;;;;;;;;;;;;;
2022/06/14 16:04:25;;;;;;;7.18;2.65;;;25.60;46.80;;;;;;5071268;28;20055;-89
2022/06/14 16:07:14;;;;;;;5.65;2.58;;;25.50;47.20;;;;;;5069873;28;20089;-87
2022/06/14 16:10:08;;;;;;;5.22;2.63;;;25.20;47.00;;;;;;5068393;28;20201;-91
2022/06/14 16:13:16;;;;;;;7.10;2.53;;;25.00;47.00;;;;;;5090920;28;20040;-88
2022/06/14 16:16:23;;;;;;;5.22;2.75;;;24.80;47.20;;;;;;5076828;28;20049;-91
2022/06/14 16:19:36;;;;;;;7.30;2.55;;;25.00;47.90;;;;;;5074050;28;20052;-88
2022/06/14 16:22:28;;;;;;;5.53;2.50;;;24.70;47.90;;;;;;5061070;28;20044;-89
2022/06/14 16:25:33;;;;;;;9.50;2.58;;;24.60;48.10;;;;;;5060491;28;20460;-90
2022/06/14 16:28:36;;;;;;;4.88;2.70;;;24.60;48.90;;;;;;5069607;28;20132;-90
2022/06/14 16:31:37;;;;;;;6.22;2.30;;;24.40;49.00;;;;;;5053143;28;20102;-90
2022/06/14 16:34:52;;;;;;;7.90;2.30;;;24.40;49.60;;;;;;5061725;28;20358;-88